Time;durP1;ratioP1;P1;durP2;ratioP2;P2;SDS_P1;SDS_P2;PMS_P1;PMS_P2;Temp;Humidity;BMP_temperature;BMP_pressure;BME280_temperature;BME280_humidity;BME280_pressure;Samples;Min_cycle;Max_cycle;Signal;HPM_P1;HPM_P2
2022/08/24 00:02:06;;;;;;;;;;;21.50;56.90;;;;;;5067993;28;19928;-82
2022/08/24 00:04:38;;;;;;;;;;;21.60;56.70;;;;;;5080628;28;20027;-81
2022/08/24 00:07:06;;;;;;;;;;;21.60;56.80;;;;;;5064553;28;19978;-81
2022/08/24 00:09:53;;;;;;;;;;;21.60;57.80;;;;;;5058405;28;20428;-77
2022/08/24 00:12:19;;;;;;;;;;;21.50;58.40;;;;;;5079331;28;19977;-81
2022/08/24 00:14:47;;;;;;;;;;;21.50;59.50;;;;;;5061917;28;20381;-81
2022/08/24 00:17:15;;;;;;;;;;;21.40;60.80;;;;;;5063170;28;20022;-80
2022/08/24 00:19:44;;;;;;;;;;;21.20;61.70;;;;;;5069058;28;19931;-80
2022/08/24 00:22:11;;;;;;;;;;;21.00;62.20;;;;;;5054246;28;20392;-76
2022/08/24 00:24:38;;;;;;;;;;;20.90;63.40;;;;;;5055211;28;19925;-81
2022/08/24 00:27:05;;;;;;;;;;;20.80;64.40;;;;;;5071726;28;19929;-85
2022/08/24 00:29:32;;;;;;;;;;;20.70;65.10;;;;;;5058114;28;19967;-78
2022/08/24 00:31:59;;;;;;;;;;;20.70;65.90;;;;;;5054113;28;19978;-77
2022/08/24 00:34:26;;;;;;;;;;;20.60;66.60;;;;;;5064994;28;19960;-81
2022/08/24 00:36:53;;;;;;;;;;;20.50;66.60;;;;;;5060770;28;19924;-76
2022/08/24 00:39:20;;;;;;;;;;;20.50;66.70;;;;;;5083762;28;19928;-77
2022/08/24 00:41:48;;;;;;;;;;;20.50;66.70;;;;;;5063344;28;19925;-81
2022/08/24 00:44:15;;;;;;;;;;;20.40;66.80;;;;;;5051534;28;19929;-81
2022/08/24 00:46:52;;;;;;;;;;;20.40;66.80;;;;;;5070824;28;19924;-77
2022/08/24 00:49:22;;;;;;;;;;;20.30;67.40;;;;;;5055040;28;19977;-77
2022/08/24 00:51:54;;;;;;;;;;;20.30;67.50;;;;;;5058664;28;20011;-81
2022/08/24 00:54:22;;;;;;;;;;;20.20;67.50;;;;;;5055315;28;20387;-81
2022/08/24 00:56:51;;;;;;;;;;;20.20;67.70;;;;;;5054943;28;20389;-76
2022/08/24 00:59:21;;;;;;;;;;;20.20;67.70;;;;;;5071734;28;19925;-81
2022/08/24 01:01:49;;;;;;;;;;;20.10;68.20;;;;;;5080137;28;19974;-77
2022/08/24 01:04:27;;;;;;;;;;;20.10;68.70;;;;;;5079735;28;19939;-81
2022/08/24 01:06:55;;;;;;;;;;;20.00;69.00;;;;;;5073336;28;19932;-81
2022/08/24 01:09:21;;;;;;;;;;;19.90;68.80;;;;;;5064484;28;19967;-86
2022/08/24 01:11:48;;;;;;;;;;;19.90;68.70;;;;;;5064860;28;19993;-81
2022/08/24 01:14:16;;;;;;;;;;;19.80;68.90;;;;;;5060312;28;19932;-82
2022/08/24 01:19:37;;;;;;;;;;;19.80;70.20;;;;;;5093538;28;20344;-81
2022/08/24 01:22:03;;;;;;;;;;;19.70;70.30;;;;;;5059151;28;20274;-88
2022/08/24 01:24:30;;;;;;;;;;;19.70;70.40;;;;;;5066022;28;20380;-81
2022/08/24 01:26:58;;;;;;;;;;;19.60;70.80;;;;;;5060772;28;19994;-77
2022/08/24 01:29:26;;;;;;;;;;;19.60;71.00;;;;;;5082453;28;19974;-87
2022/08/24 01:31:53;;;;;;;;;;;19.50;71.10;;;;;;5087157;28;19931;-85
2022/08/24 01:34:20;;;;;;;;;;;19.50;71.00;;;;;;5062742;28;19932;-77
2022/08/24 01:36:48;;;;;;;;;;;19.50;71.00;;;;;;5063997;28;20015;-77
2022/08/24 01:39:19;;;;;;;;;;;19.50;71.30;;;;;;5060841;28;19928;-81
2022/08/24 01:41:47;;;;;;;;;;;19.50;71.50;;;;;;5057921;28;19960;-77
2022/08/24 01:44:13;;;;;;;;;;;19.50;71.70;;;;;;5059560;28;19928;-81
2022/08/24 01:46:44;;;;;;;;;;;19.50;72.10;;;;;;5064968;28;20416;-86
2022/08/24 01:49:11;;;;;;;;;;;19.40;72.30;;;;;;5065318;28;19992;-81
2022/08/24 01:51:37;;;;;;;;;;;19.40;72.50;;;;;;5064354;28;19967;-81
2022/08/24 01:54:05;;;;;;;;;;;19.30;72.60;;;;;;5068982;28;20297;-81
2022/08/24 01:56:32;;;;;;;;;;;19.30;72.90;;;;;;5054172;28;19946;-81
2022/08/24 01:58:59;;;;;;;;;;;19.30;73.20;;;;;;5061283;28;20494;-77
2022/08/24 02:01:30;;;;;;;;;;;19.20;73.50;;;;;;5063201;28;19960;-81
2022/08/24 02:03:59;;;;;;;;;;;19.20;73.50;;;;;;5056142;28;20377;-82
2022/08/24 02:06:26;;;;;;;;;;;19.10;73.70;;;;;;5058504;28;19974;-87
2022/08/24 02:08:54;;;;;;;;;;;19.10;73.90;;;;;;5059522;28;20388;-78
2022/08/24 02:11:21;;;;;;;;;;;19.10;73.60;;;;;;5071076;28;19982;-81
2022/08/24 02:13:48;;;;;;;;;;;19.10;71.40;;;;;;5063906;28;19954;-87
2022/08/24 02:16:15;;;;;;;;;;;19.20;70.40;;;;;;5087106;28;20392;-80
2022/08/24 02:18:42;;;;;;;;;;;19.30;69.70;;;;;;5063628;28;19924;-81
2022/08/24 02:21:09;;;;;;;;;;;19.40;68.60;;;;;;5066385;28;19970;-81
2022/08/24 02:23:37;;;;;;;;;;;19.40;67.90;;;;;;5080552;28;20352;-81
2022/08/24 02:26:05;;;;;;;;;;;19.50;67.70;;;;;;5059490;28;20017;-87
2022/08/24 02:28:32;;;;;;;;;;;19.60;66.80;;;;;;5055513;28;19971;-78
2022/08/24 02:30:59;;;;;;;;;;;19.60;66.30;;;;;;5061736;28;19935;-77
2022/08/24 02:33:26;;;;;;;;;;;19.70;65.70;;;;;;5059281;28;19925;-86
2022/08/24 02:35:55;;;;;;;;;;;19.80;64.90;;;;;;5068073;28;20384;-81
2022/08/24 02:38:22;;;;;;;;;;;19.90;64.20;;;;;;5059979;28;19974;-78
2022/08/24 02:40:49;;;;;;;;;;;19.90;63.40;;;;;;5068654;28;19967;-78
2022/08/24 02:43:15;;;;;;;;;;;20.00;63.00;;;;;;5058077;28;19924;-78
2022/08/24 02:45:43;;;;;;;;;;;20.10;62.40;;;;;;5078037;28;19928;-81
2022/08/24 02:48:16;;;;;;;;;;;20.20;62.00;;;;;;5062346;28;19928;-78
2022/08/24 02:50:45;;;;;;;;;;;20.30;61.70;;;;;;5054658;28;19970;-81
2022/08/24 02:53:13;;;;;;;;;;;20.30;61.00;;;;;;5055872;28;19968;-81
2022/08/24 02:55:41;;;;;;;;;;;20.40;60.30;;;;;;5072874;28;20404;-82
2022/08/24 02:58:08;;;;;;;;;;;20.60;59.90;;;;;;5083898;28;19972;-79
2022/08/24 03:00:37;;;;;;;;;;;20.60;59.70;;;;;;5055399;28;19924;-81
2022/08/24 03:03:05;;;;;;;;;;;20.70;59.50;;;;;;5059942;28;19924;-86
2022/08/24 03:05:33;;;;;;;;;;;20.70;59.60;;;;;;5068482;28;19928;-78
2022/08/24 03:08:00;;;;;;;;;;;20.70;59.60;;;;;;5066359;28;19924;-82
2022/08/24 03:10:26;;;;;;;;;;;20.70;59.40;;;;;;5055854;28;20545;-81
2022/08/24 03:12:53;;;;;;;;;;;20.70;59.30;;;;;;5066258;28;19967;-79
2022/08/24 03:15:24;;;;;;;;;;;20.70;59.10;;;;;;5057455;28;19924;-88
2022/08/24 03:17:51;;;;;;;;;;;20.70;59.00;;;;;;5061852;28;20357;-87
2022/08/24 03:20:20;;;;;;;;;;;20.70;59.10;;;;;;5070126;28;20333;-87
2022/08/24 03:22:47;;;;;;;;;;;20.70;58.90;;;;;;5058127;28;19924;-82
2022/08/24 03:25:15;;;;;;;;;;;20.70;58.90;;;;;;5059967;28;20396;-78
2022/08/24 03:27:42;;;;;;;;;;;20.70;58.70;;;;;;5049849;28;20453;-82
2022/08/24 03:30:11;;;;;;;;;;;20.70;58.70;;;;;;5062339;28;19928;-82
2022/08/24 03:32:39;;;;;;;;;;;20.70;58.80;;;;;;5056459;28;19925;-87
2022/08/24 03:35:06;;;;;;;;;;;20.70;58.40;;;;;;5068443;28;20300;-78
2022/08/24 03:37:33;;;;;;;;;;;20.80;58.00;;;;;;5061874;28;19925;-78
2022/08/24 03:40:00;;;;;;;;;;;20.80;58.00;;;;;;5059555;28;19964;-82
2022/08/24 03:42:27;;;;;;;;;;;20.80;58.00;;;;;;5063447;28;20010;-83
2022/08/24 03:44:54;;;;;;;;;;;20.80;57.90;;;;;;5064140;28;19929;-78
2022/08/24 03:47:21;;;;;;;;;;;20.90;57.60;;;;;;5048875;28;19925;-78
2022/08/24 03:49:48;;;;;;;;;;;20.90;57.70;;;;;;5058267;28;20354;-83
2022/08/24 03:52:16;;;;;;;;;;;20.80;57.70;;;;;;5066553;28;19924;-81
2022/08/24 03:54:42;;;;;;;;;;;20.80;57.80;;;;;;5060805;28;19974;-82
2022/08/24 03:57:09;;;;;;;;;;;20.80;57.80;;;;;;5073345;28;19960;-82
2022/08/24 03:59:36;;;;;;;;;;;20.80;57.90;;;;;;5048614;28;19924;-78
2022/08/24 04:02:12;;;;;;;;;;;20.80;57.60;;;;;;5045866;28;19939;-85
2022/08/24 04:04:40;;;;;;;;;;;20.80;57.80;;;;;;5044583;28;20011;-79
2022/08/24 04:07:08;;;;;;;;;;;20.80;57.90;;;;;;5047108;28;20490;-88
2022/08/24 04:09:35;;;;;;;;;;;20.80;58.10;;;;;;5053273;28;19924;-78
2022/08/24 04:12:02;;;;;;;;;;;20.70;58.10;;;;;;5052013;28;19928;-81
2022/08/24 04:14:29;;;;;;;;;;;20.70;58.10;;;;;;5045470;28;19974;-81
2022/08/24 04:16:55;;;;;;;;;;;20.70;58.40;;;;;;5045657;28;20388;-81
2022/08/24 04:19:24;;;;;;;;;;;20.70;58.40;;;;;;5068508;28;20454;-82
2022/08/24 04:21:51;;;;;;;;;;;20.60;58.50;;;;;;5065403;28;19924;-81
2022/08/24 04:24:18;;;;;;;;;;;20.60;58.40;;;;;;5045229;28;19975;-81
2022/08/24 04:26:45;;;;;;;;;;;20.60;58.30;;;;;;5063748;28;20392;-78
2022/08/24 04:29:13;;;;;;;;;;;20.60;58.20;;;;;;5058808;28;19975;-82
2022/08/24 04:31:41;;;;;;;;;;;20.60;58.20;;;;;;5055448;28;19924;-81
2022/08/24 04:34:09;;;;;;;;;;;20.60;58.30;;;;;;5071638;28;19924;-88
2022/08/24 04:36:36;;;;;;;;;;;20.70;58.10;;;;;;5061880;28;19925;-82
2022/08/24 04:39:03;;;;;;;;;;;20.70;58.20;;;;;;5065773;28;20350;-79
2022/08/24 04:41:29;;;;;;;;;;;20.60;58.50;;;;;;5060386;28;19924;-78
2022/08/24 04:43:58;;;;;;;;;;;20.60;58.30;;;;;;5072499;28;20384;-81
2022/08/24 04:46:25;;;;;;;;;;;20.60;58.10;;;;;;5059207;28;20288;-82
2022/08/24 04:48:52;;;;;;;;;;;20.70;58.20;;;;;;5066789;28;20446;-81
2022/08/24 04:51:19;;;;;;;;;;;20.70;57.90;;;;;;5060632;28;19969;-81
2022/08/24 04:53:47;;;;;;;;;;;20.70;57.80;;;;;;5051543;28;19932;-82
2022/08/24 04:56:17;;;;;;;;;;;20.70;57.90;;;;;;5057115;28;20509;-81
2022/08/24 04:58:46;;;;;;;;;;;20.70;57.80;;;;;;5052280;28;19974;-87
2022/08/24 05:01:14;;;;;;;;;;;20.70;58.00;;;;;;5062651;28;19932;-82
2022/08/24 05:03:46;;;;;;;;;;;20.70;58.10;;;;;;5057236;28;19932;-81
2022/08/24 05:06:14;;;;;;;;;;;20.70;57.90;;;;;;5062239;28;19932;-82
2022/08/24 05:08:42;;;;;;;;;;;20.70;57.80;;;;;;5018799;28;19925;-81
2022/08/24 05:11:09;;;;;;;;;;;20.70;57.70;;;;;;5072451;28;19947;-88
2022/08/24 05:13:35;;;;;;;;;;;20.70;57.70;;;;;;5070528;28;20389;-88
2022/08/24 05:16:10;;;;;;;;;;;20.80;57.50;;;;;;5054906;28;19928;-79
2022/08/24 05:18:37;;;;;;;;;;;20.80;57.50;;;;;;5081062;28;19928;-82
2022/08/24 05:21:13;;;;;;;;;;;20.80;57.70;;;;;;5055830;28;20384;-81
2022/08/24 05:23:40;;;;;;;;;;;20.80;57.70;;;;;;5066407;28;19965;-79
2022/08/24 05:26:12;;;;;;;;;;;20.80;57.70;;;;;;5082508;28;19928;-82
2022/08/24 05:28:39;;;;;;;;;;;20.80;57.70;;;;;;5063291;28;19955;-81
2022/08/24 05:31:07;;;;;;;;;;;20.80;57.40;;;;;;5078013;28;19924;-87
2022/08/24 05:33:34;;;;;;;;;;;20.90;57.30;;;;;;5063822;28;19924;-82
2022/08/24 05:36:02;;;;;;;;;;;21.00;56.70;;;;;;5050527;28;19974;-82
2022/08/24 05:38:28;;;;;;;;;;;21.00;56.80;;;;;;5050821;28;19927;-78
2022/08/24 05:40:55;;;;;;;;;;;21.10;56.60;;;;;;5065981;28;19981;-82
2022/08/24 05:43:22;;;;;;;;;;;21.10;56.70;;;;;;5069525;28;19986;-79
2022/08/24 05:45:49;;;;;;;;;;;21.20;56.20;;;;;;5058472;28;19925;-82
2022/08/24 05:48:16;;;;;;;;;;;21.20;56.10;;;;;;5066765;28;20434;-77
2022/08/24 05:50:42;;;;;;;;;;;21.30;56.20;;;;;;5062359;28;20396;-82
2022/08/24 05:53:10;;;;;;;;;;;21.30;56.30;;;;;;5059645;28;19925;-87
2022/08/24 05:55:37;;;;;;;;;;;21.30;56.30;;;;;;5060479;28;19928;-86
2022/08/24 05:58:04;;;;;;;;;;;21.40;56.00;;;;;;5057482;28;20058;-78
2022/08/24 06:00:32;;;;;;;;;;;21.40;56.00;;;;;;5067960;28;20364;-82
2022/08/24 06:02:59;;;;;;;;;;;21.40;55.50;;;;;;5073225;28;19935;-82
2022/08/24 06:05:26;;;;;;;;;;;21.50;55.60;;;;;;5064493;28;19925;-81
2022/08/24 06:07:53;;;;;;;;;;;21.50;55.50;;;;;;5058700;28;20384;-82
2022/08/24 06:10:20;;;;;;;;;;;21.50;55.60;;;;;;5069923;28;19955;-88
2022/08/24 06:13:02;;;;;;;;;;;21.60;55.60;;;;;;5069644;28;19934;-82
2022/08/24 06:15:29;;;;;;;;;;;21.60;55.70;;;;;;5062421;28;20291;-78
2022/08/24 06:17:56;;;;;;;;;;;21.60;55.70;;;;;;5068429;28;19924;-83
2022/08/24 06:20:23;;;;;;;;;;;21.70;55.80;;;;;;5047636;28;19928;-81
2022/08/24 06:22:50;;;;;;;;;;;21.70;56.00;;;;;;5073507;28;20411;-78
2022/08/24 06:28:02;;;;;;;;;;;21.70;55.80;;;;;;5081081;28;20459;-78
2022/08/24 06:30:28;;;;;;;;;;;21.70;55.90;;;;;;5077990;28;19966;-81
2022/08/24 06:33:00;;;;;;;;;;;21.70;56.20;;;;;;5053113;28;20012;-78
2022/08/24 06:35:27;;;;;;;;;;;21.80;55.80;;;;;;5052279;28;20327;-87
2022/08/24 06:37:55;;;;;;;;;;;21.80;56.00;;;;;;5060185;28;19967;-81
2022/08/24 06:40:23;;;;;;;;;;;21.90;56.20;;;;;;5067380;28;19939;-82
2022/08/24 06:42:50;;;;;;;;;;;21.90;55.50;;;;;;5083513;28;19930;-87
2022/08/24 06:45:17;;;;;;;;;;;21.90;55.70;;;;;;5063973;28;19982;-81
2022/08/24 06:47:44;;;;;;;;;;;22.00;55.50;;;;;;5062387;28;19967;-86
2022/08/24 06:50:11;;;;;;;;;;;22.00;55.60;;;;;;5059284;28;20340;-81
2022/08/24 06:52:39;;;;;;;;;;;22.10;55.70;;;;;;5054986;28;19970;-79
2022/08/24 06:55:06;;;;;;;;;;;22.10;55.50;;;;;;5055404;28;19924;-87
2022/08/24 06:57:32;;;;;;;;;;;22.20;55.40;;;;;;5065869;28;19973;-85
2022/08/24 06:59:59;;;;;;;;;;;22.30;54.90;;;;;;5077034;28;19992;-83
2022/08/24 07:02:26;;;;;;;;;;;22.40;55.00;;;;;;5057037;28;20454;-88
2022/08/24 07:04:53;;;;;;;;;;;22.40;54.90;;;;;;5064207;28;19935;-82
2022/08/24 07:07:20;;;;;;;;;;;22.50;55.40;;;;;;5077434;28;19951;-81
2022/08/24 07:09:46;;;;;;;;;;;22.60;55.00;;;;;;5065321;28;19925;-83
2022/08/24 07:12:14;;;;;;;;;;;22.70;54.80;;;;;;5074219;28;19936;-81
2022/08/24 07:14:40;;;;;;;;;;;22.90;55.10;;;;;;5063376;28;19929;-88
2022/08/24 07:17:07;;;;;;;;;;;23.00;54.40;;;;;;5085684;28;19928;-87
2022/08/24 07:19:34;;;;;;;;;;;23.10;54.10;;;;;;5079558;28;19924;-88
2022/08/24 07:22:01;;;;;;;;;;;23.30;53.70;;;;;;5073377;28;19931;-84
2022/08/24 07:24:28;;;;;;;;;;;23.40;52.40;;;;;;5066387;28;19925;-84
2022/08/24 07:26:55;;;;;;;;;;;23.40;51.90;;;;;;5067736;28;19932;-78
2022/08/24 07:29:21;;;;;;;;;;;23.60;52.60;;;;;;5065833;28;19985;-83
2022/08/24 07:32:09;;;;;;;;;;;23.70;52.40;;;;;;5059540;28;19930;-78
2022/08/24 07:34:36;;;;;;;;;;;23.90;52.50;;;;;;5063045;28;19924;-78
2022/08/24 07:37:03;;;;;;;;;;;24.10;51.20;;;;;;5063906;28;19962;-84
2022/08/24 07:39:29;;;;;;;;;;;24.30;50.10;;;;;;5081478;28;19932;-87
2022/08/24 07:41:56;;;;;;;;;;;24.40;49.30;;;;;;5081025;28;19960;-89
2022/08/24 07:44:43;;;;;;;;;;;24.40;49.20;;;;;;5053856;28;19971;-88
2022/08/24 07:47:10;;;;;;;;;;;24.60;49.10;;;;;;5068988;28;20461;-84
2022/08/24 07:49:57;;;;;;;;;;;24.70;49.00;;;;;;5066672;28;20017;-84
2022/08/24 07:52:23;;;;;;;;;;;24.90;49.10;;;;;;5056114;28;19963;-84
2022/08/24 07:54:50;;;;;;;;;;;25.10;48.60;;;;;;5073013;28;19931;-80
2022/08/24 07:57:17;;;;;;;;;;;25.30;48.90;;;;;;5071356;28;19924;-81
2022/08/24 07:59:46;;;;;;;;;;;25.50;47.60;;;;;;5056981;28;19961;-81
2022/08/24 08:02:13;;;;;;;;;;;25.60;47.20;;;;;;5054431;28;19968;-85
2022/08/24 08:04:40;;;;;;;;;;;25.80;47.00;;;;;;5060580;28;19954;-81
2022/08/24 08:07:07;;;;;;;;;;;25.90;46.10;;;;;;5050641;28;19932;-84
2022/08/24 08:09:37;;;;;;;;;;;26.10;46.20;;;;;;5049138;28;19925;-81
2022/08/24 08:12:05;;;;;;;;;;;26.20;46.40;;;;;;5052992;28;19925;-89
2022/08/24 08:14:32;;;;;;;;;;;26.30;45.90;;;;;;5083590;28;19981;-80
2022/08/24 08:16:59;;;;;;;;;;;26.30;45.70;;;;;;5063175;28;19935;-81
2022/08/24 08:19:25;;;;;;;;;;;26.40;45.20;;;;;;5072944;28;19981;-85
2022/08/24 08:24:38;;;;;;;;;;;26.50;45.50;;;;;;5078835;28;19929;-79
2022/08/24 08:27:05;;;;;;;;;;;26.70;45.50;;;;;;5060636;28;19925;-78
2022/08/24 08:29:33;;;;;;;;;;;26.90;44.50;;;;;;5077793;28;20408;-79
2022/08/24 08:32:00;;;;;;;;;;;27.00;43.70;;;;;;5063691;28;20338;-80
2022/08/24 08:34:27;;;;;;;;;;;27.10;44.00;;;;;;5086765;28;19931;-79
2022/08/24 08:36:54;;;;;;;;;;;27.30;44.50;;;;;;5056635;28;19928;-84
2022/08/24 08:39:22;;;;;;;;;;;27.50;44.30;;;;;;5062312;28;19966;-89
2022/08/24 08:42:09;;;;;;;;;;;27.60;43.00;;;;;;5056469;28;19924;-88
2022/08/24 08:44:36;;;;;;;;;;;27.70;42.90;;;;;;5055058;28;20277;-82
2022/08/24 08:47:08;;;;;;;;;;;27.90;42.70;;;;;;5058608;28;19931;-84
2022/08/24 08:49:53;;;;;;;;;;;28.00;41.70;;;;;;5061602;28;20433;-83
2022/08/24 08:52:38;;;;;;;;;;;28.00;41.60;;;;;;5064651;28;20467;-79
2022/08/24 08:55:23;;;;;;;;;;;28.20;42.10;;;;;;5064840;28;19962;-83
2022/08/24 08:58:02;;;;;;;;;;;28.20;41.60;;;;;;5057260;28;19948;-79
2022/08/24 09:00:47;;;;;;;;;;;28.20;41.30;;;;;;5053837;28;19957;-88
2022/08/24 09:03:33;;;;;;;;;;;28.30;42.20;;;;;;5073775;28;19908;-83
2022/08/24 09:06:06;;;;;;;;;;;28.50;42.20;;;;;;5078894;28;19959;-83
2022/08/24 09:08:36;;;;;;;;;;;28.70;40.90;;;;;;5061175;28;19929;-79
2022/08/24 09:11:09;;;;;;;;;;;28.80;41.30;;;;;;5064462;28;19950;-84
2022/08/24 09:13:41;;;;;;;;;;;28.90;41.00;;;;;;5070533;28;19948;-83
2022/08/24 09:16:41;;;;;;;;;;;29.00;41.10;;;;;;5054346;28;19931;-87
2022/08/24 09:19:20;;;;;;;;;;;29.10;40.00;;;;;;5029214;28;19947;-87
2022/08/24 09:22:03;;;;;;;;;;;29.20;39.60;;;;;;5069387;28;20316;-82
2022/08/24 09:24:30;;;;;;;;;;;29.20;39.60;;;;;;5063475;28;20422;-82
2022/08/24 09:27:24;;;;;;;;;;;29.20;40.00;;;;;;5074714;28;19955;-86
2022/08/24 09:30:10;;;;;;;;;;;29.30;40.50;;;;;;5053974;28;20443;-84
2022/08/24 09:32:54;;;;;;;;;;;29.40;39.60;;;;;;5058154;28;19924;-79
2022/08/24 09:35:38;;;;;;;;;;;29.50;39.40;;;;;;5056341;28;19974;-89
2022/08/24 09:38:13;;;;;;;;;;;29.50;39.50;;;;;;5069926;28;19978;-83
2022/08/24 09:40:55;;;;;;;;;;;29.60;38.50;;;;;;5065454;28;19990;-83
2022/08/24 09:43:41;;;;;;;;;;;29.60;38.40;;;;;;5056486;28;19977;-83
2022/08/24 09:46:07;;;;;;;;;;;29.60;39.70;;;;;;5063114;28;19952;-80
2022/08/24 09:48:54;;;;;;;;;;;29.90;39.60;;;;;;5056150;28;19971;-83
2022/08/24 09:51:45;;;;;;;;;;;29.90;38.20;;;;;;5083900;28;19928;-83
2022/08/24 09:54:11;;;;;;;;;;;29.80;37.90;;;;;;5058057;28;20014;-78
2022/08/24 09:56:44;;;;;;;;;;;29.90;38.30;;;;;;5075635;28;19924;-89
2022/08/24 09:59:29;;;;;;;;;;;29.90;38.20;;;;;;5064915;28;19978;-82
2022/08/24 10:02:08;;;;;;;;;;;30.00;38.40;;;;;;5054369;28;19925;-82
2022/08/24 10:04:35;;;;;;;;;;;30.10;38.70;;;;;;5069681;28;19960;-82
2022/08/24 10:07:03;;;;;;;;;;;30.30;38.70;;;;;;5059922;28;19928;-83
2022/08/24 10:09:49;;;;;;;;;;;30.40;38.10;;;;;;5060033;28;20005;-77
2022/08/24 10:12:28;;;;;;;;;;;30.50;37.80;;;;;;5076750;28;19924;-78
2022/08/24 10:14:59;;;;;;;;;;;30.80;37.40;;;;;;5075066;28;19924;-83
2022/08/24 10:17:38;;;;;;;;;;;30.90;36.50;;;;;;5069445;28;19924;-79
2022/08/24 10:20:27;;;;;;;;;;;31.00;36.80;;;;;;5061504;28;19925;-78
2022/08/24 10:23:09;;;;;;;;;;;30.90;34.40;;;;;;5073276;28;19955;-89
2022/08/24 10:25:38;;;;;;;;;;;30.90;36.00;;;;;;5055048;28;19925;-87
2022/08/24 10:28:09;;;;;;;;;;;30.80;36.10;;;;;;5057446;28;19986;-82
2022/08/24 10:30:35;;;;;;;;;;;30.70;36.90;;;;;;5053434;28;19925;-78
2022/08/24 10:33:02;;;;;;;;;;;30.70;35.30;;;;;;5079920;28;19970;-86
2022/08/24 10:35:42;;;;;;;;;;;30.70;36.10;;;;;;5057108;28;20325;-78
2022/08/24 10:41:03;;;;;;;;;;;30.90;35.00;;;;;;5082778;28;20475;-89
2022/08/24 10:43:50;;;;;;;;;;;31.00;36.20;;;;;;5066288;28;19925;-84
2022/08/24 10:46:36;;;;;;;;;;;31.10;35.80;;;;;;5080860;28;20302;-85
2022/08/24 10:49:22;;;;;;;;;;;31.20;35.60;;;;;;5062900;28;20009;-79
2022/08/24 10:52:04;;;;;;;;;;;31.40;34.10;;;;;;5067815;28;19974;-87
2022/08/24 10:54:34;;;;;;;;;;;31.50;34.90;;;;;;5069677;28;19955;-84
2022/08/24 10:57:06;;;;;;;;;;;31.50;34.00;;;;;;5082246;28;19925;-81
2022/08/24 10:59:51;;;;;;;;;;;31.70;33.80;;;;;;5072150;28;19951;-78
2022/08/24 11:02:32;;;;;;;;;;;31.70;33.60;;;;;;5058717;28;19946;-87
2022/08/24 11:05:01;;;;;;;;;;;31.60;33.10;;;;;;5057582;28;19947;-78
2022/08/24 11:07:28;;;;;;;;;;;31.60;34.20;;;;;;5061998;28;19977;-82
2022/08/24 11:09:59;;;;;;;;;;;31.70;35.20;;;;;;5055834;28;19927;-88
2022/08/24 11:12:31;;;;;;;;;;;31.70;32.70;;;;;;5068735;28;19970;-79
2022/08/24 11:14:59;;;;;;;;;;;31.60;32.90;;;;;;5065718;28;20408;-82
2022/08/24 11:17:28;;;;;;;;;;;31.60;34.30;;;;;;5057440;28;19928;-83
2022/08/24 11:19:56;;;;;;;;;;;31.70;33.70;;;;;;5075206;28;20346;-87
2022/08/24 11:22:39;;;;;;;;;;;31.70;32.50;;;;;;5053408;28;19925;-83
2022/08/24 11:25:14;;;;;;;;;;;31.60;33.90;;;;;;5046337;28;19924;-87
2022/08/24 11:27:46;;;;;;;;;;;31.40;34.80;;;;;;5073547;28;19928;-88
2022/08/24 11:30:16;;;;;;;;;;;31.40;34.30;;;;;;5056217;28;19933;-87
2022/08/24 11:32:51;;;;;;;;;;;31.30;33.40;;;;;;5050590;28;20474;-88
2022/08/24 11:35:21;;;;;;;;;;;31.30;34.40;;;;;;5078268;28;19978;-83
2022/08/24 11:37:49;;;;;;;;;;;31.30;33.40;;;;;;5082440;28;19970;-82
2022/08/24 11:40:18;;;;;;;;;;;31.20;34.00;;;;;;5072977;28;19970;-82
2022/08/24 11:42:45;;;;;;;;;;;31.30;34.40;;;;;;5079980;28;19925;-87
2022/08/24 11:45:12;;;;;;;;;;;31.40;33.60;;;;;;5060535;28;20393;-82
2022/08/24 11:47:48;;;;;;;;;;;31.40;33.50;;;;;;5060814;28;19956;-82
2022/08/24 11:50:33;;;;;;;;;;;31.30;33.30;;;;;;5049153;28;19925;-83
2022/08/24 11:53:18;;;;;;;;;;;31.30;33.20;;;;;;5059617;28;19928;-83
2022/08/24 11:55:53;;;;;;;;;;;31.30;32.70;;;;;;5059878;28;20437;-78
2022/08/24 11:59:04;;;;;;;;;;;31.40;32.90;;;;;;5058455;28;20025;-81
2022/08/24 12:01:38;;;;;;;;;;;31.50;32.90;;;;;;4992757;28;19930;-78
2022/08/24 12:04:24;;;;;;;;;;;31.70;33.00;;;;;;5003416;28;19926;-84
2022/08/24 12:06:58;;;;;;;;;;;31.80;32.20;;;;;;5052940;28;19950;-83
2022/08/24 12:09:42;;;;;;;;;;;31.90;33.20;;;;;;5081476;28;19929;-81
2022/08/24 12:12:12;;;;;;;;;;;32.00;33.10;;;;;;5082955;28;20304;-89
2022/08/24 12:14:41;;;;;;;;;;;32.30;32.90;;;;;;5073986;28;20317;-78
2022/08/24 12:17:11;;;;;;;;;;;32.50;32.40;;;;;;5059434;28;19974;-89
2022/08/24 12:19:45;;;;;;;;;;;32.70;31.60;;;;;;5069537;28;19966;-89
2022/08/24 12:22:12;;;;;;;;;;;32.80;32.00;;;;;;5071870;28;20002;-82
2022/08/24 12:24:41;;;;;;;;;;;33.00;32.50;;;;;;5045971;28;19928;-81
2022/08/24 12:27:26;;;;;;;;;;;33.10;31.60;;;;;;5047883;28;20419;-84
2022/08/24 12:30:19;;;;;;;;;;;33.10;31.50;;;;;;5053061;28;20011;-85
2022/08/24 12:32:50;;;;;;;;;;;33.00;32.00;;;;;;5068104;28;19974;-78
2022/08/24 12:35:17;;;;;;;;;;;32.90;32.70;;;;;;5053005;28;19963;-89
2022/08/24 12:37:48;;;;;;;;;;;32.90;32.70;;;;;;5062502;28;19928;-83
2022/08/24 12:40:33;;;;;;;;;;;32.80;32.30;;;;;;5054398;28;19932;-83
2022/08/24 12:43:04;;;;;;;;;;;32.80;32.70;;;;;;5057386;28;19932;-91
2022/08/24 12:45:31;;;;;;;;;;;32.80;33.30;;;;;;5057164;28;19976;-78
2022/08/24 12:48:30;;;;;;;;;;;32.90;33.70;;;;;;5060285;28;19924;-79
2022/08/24 12:51:09;;;;;;;;;;;32.90;32.70;;;;;;5022328;28;20335;-82
2022/08/24 12:53:42;;;;;;;;;;;32.80;33.20;;;;;;5064476;28;20335;-83
2022/08/24 12:56:21;;;;;;;;;;;32.90;33.00;;;;;;5055878;28;20832;-78
2022/08/24 12:58:58;;;;;;;;;;;32.90;32.60;;;;;;5054408;28;19978;-79
2022/08/24 13:01:26;;;;;;;;;;;32.90;32.90;;;;;;5057442;28;19929;-83
2022/08/24 13:04:21;;;;;;;;;;;33.10;34.30;;;;;;5053724;28;20010;-90
2022/08/24 13:06:50;;;;;;;;;;;33.40;34.30;;;;;;5045957;28;20010;-81
2022/08/24 13:09:27;;;;;;;;;;;33.50;32.90;;;;;;5048548;28;19960;-88
2022/08/24 13:11:57;;;;;;;;;;;33.50;32.30;;;;;;5068666;28;19935;-89
2022/08/24 13:14:25;;;;;;;;;;;33.40;33.00;;;;;;5056059;28;19935;-82
2022/08/24 13:16:55;;;;;;;;;;;33.50;32.60;;;;;;5054249;28;19931;-88
2022/08/24 13:19:22;;;;;;;;;;;33.20;32.20;;;;;;5053518;28;19964;-79
2022/08/24 13:21:53;;;;;;;;;;;33.20;32.90;;;;;;5052724;28;19924;-81
2022/08/24 13:24:29;;;;;;;;;;;33.20;33.30;;;;;;5056462;28;20371;-77
2022/08/24 13:26:57;;;;;;;;;;;33.10;33.20;;;;;;5065875;28;19924;-83
2022/08/24 13:29:26;;;;;;;;;;;33.10;32.90;;;;;;5072344;28;19932;-83
2022/08/24 13:31:54;;;;;;;;;;;33.10;32.60;;;;;;5055141;28;19964;-83
2022/08/24 13:34:35;;;;;;;;;;;33.10;32.70;;;;;;5065839;28;20150;-78
2022/08/24 13:37:13;;;;;;;;;;;33.20;32.80;;;;;;5080818;28;19928;-82
2022/08/24 13:39:45;;;;;;;;;;;33.30;33.80;;;;;;5073246;28;20008;-79
2022/08/24 13:42:11;;;;;;;;;;;33.40;32.80;;;;;;5062293;28;19933;-78
2022/08/24 13:44:42;;;;;;;;;;;33.40;32.50;;;;;;5054891;28;19924;-79
2022/08/24 13:47:19;;;;;;;;;;;33.60;33.10;;;;;;5058738;28;19928;-91
2022/08/24 13:50:08;;;;;;;;;;;33.80;32.40;;;;;;5059529;28;19966;-83
2022/08/24 13:52:41;;;;;;;;;;;33.90;31.50;;;;;;5073890;28;19982;-82
2022/08/24 13:55:13;;;;;;;;;;;33.80;31.70;;;;;;5062655;28;19977;-82
2022/08/24 13:57:49;;;;;;;;;;;33.70;31.30;;;;;;5056573;28;20485;-83
2022/08/24 14:00:35;;;;;;;;;;;33.60;31.90;;;;;;5071203;28;20343;-88
2022/08/24 14:03:04;;;;;;;;;;;33.60;31.80;;;;;;5083506;28;19928;-83
2022/08/24 14:05:36;;;;;;;;;;;33.60;32.20;;;;;;5056723;28;19924;-89
2022/08/24 14:08:12;;;;;;;;;;;33.60;32.10;;;;;;5062384;28;19974;-78
2022/08/24 14:10:42;;;;;;;;;;;33.50;31.60;;;;;;5059198;28;19963;-82
2022/08/24 14:13:11;;;;;;;;;;;33.40;32.40;;;;;;5069889;28;19924;-81
2022/08/24 14:18:48;;;;;;;;;;;33.10;31.30;;;;;;5074652;28;20012;-78
2022/08/24 14:21:18;;;;;;;;;;;33.10;32.60;;;;;;5055755;28;19971;-82
2022/08/24 14:23:50;;;;;;;;;;;33.20;32.50;;;;;;5052659;28;19974;-89
2022/08/24 14:26:36;;;;;;;;;;;33.20;32.50;;;;;;5078454;28;20396;-82
2022/08/24 14:29:18;;;;;;;;;;;33.30;33.50;;;;;;5065889;28;19935;-82
2022/08/24 14:31:51;;;;;;;;;;;33.30;32.50;;;;;;5064125;28;19925;-82
2022/08/24 14:34:21;;;;;;;;;;;33.10;32.60;;;;;;5073527;28;20354;-78
2022/08/24 14:37:00;;;;;;;;;;;32.80;32.70;;;;;;5066377;28;19959;-82
2022/08/24 14:39:36;;;;;;;;;;;32.70;33.80;;;;;;5047083;28;20285;-82
2022/08/24 14:42:02;;;;;;;;;;;32.80;34.20;;;;;;5066065;28;19929;-78
2022/08/24 14:44:35;;;;;;;;;;;32.90;34.20;;;;;;5053898;28;19960;-88
2022/08/24 14:47:05;;;;;;;;;;;32.90;33.90;;;;;;5050422;28;19932;-83
2022/08/24 14:49:40;;;;;;;;;;;33.00;33.60;;;;;;5043089;28;20388;-82
2022/08/24 14:52:21;;;;;;;;;;;33.00;33.10;;;;;;5048162;28;19924;-78
2022/08/24 14:55:01;;;;;;;;;;;33.00;33.30;;;;;;5059173;28;19928;-88